Portada
METAR-TAF:

METAR-TAF

Aeroports :

Txungking, Xina

latitud: 29-31N, longitud: 106-29E, altitud: 351 m

Observació

L'informe es va fer fa 37 minuts, a les 09:00 UTC
Vent 4 kt del Est, variant entre Nord/Nord-Est i Sud-Est
Temperatura 27°C
Humitat 58%
Pressió 1009 hPa
Visibilitat 10 km o més
sense núvols per sota de 1500 mi sense presència de cumulonimbus.

METAR: ZUCK 060900Z 08002MPS 020V130 CAVOK 27/18 Q1009 NOSIG

Hora: 17:37 (09:37 UTC)

Pronòstic

L'informe es va fer fa 6 hores i 27 minuts, a les 03:10 UTC
Pronòstic vàlid del 06 a les 06 UTC al 07 a les 06 UTC
Vent 6 kt del Sud/Sud-Est
Visibilitat: 6000 m
Núvols disperses a una alçada de 5000 ft

TAF: ZUCK 060310Z 0606/0706 15003MPS 6000 SCT050 TX28/0608Z TN21/0622Z

Observacions i pronòstics meteorològics de més de 4000 aeroports (METAR i TAF).

Les estacions disponibles són els punts grocs i vermells al mapa.

Posi el ratolí al punt desitjat per veure el nom de l'estació.

Feu clic per veure les observacions i els pronòstics meteorològics.

Per canviar el mapa: feu clic els botons verds amb una creu de color negre per apropar; al botó verd amb un guió per allunyar la imatge; o en les fletxes verdes per a mapes adjacents.


METAR-TAF: